sensor_id;sensor_type;location;lat;lon;timestamp;pressure;altitude;pressure_sealevel;temperature;humidity
59873;BME280;50750;51.636;4.948;2024-01-30T00:01:02;102746.33;;;11.26;64.02
59873;BME280;50750;51.636;4.948;2024-01-30T00:03:49;102739.84;;;11.26;64.20
59873;BME280;50750;51.636;4.948;2024-01-30T00:06:21;102740.17;;;11.25;64.13
59873;BME280;50750;51.636;4.948;2024-01-30T00:08:51;102736.16;;;11.24;64.13
59873;BME280;50750;51.636;4.948;2024-01-30T00:11:22;102734.59;;;11.24;64.07
59873;BME280;50750;51.636;4.948;2024-01-30T00:13:54;102734.07;;;11.24;64.18
59873;BME280;50750;51.636;4.948;2024-01-30T00:16:26;102731.08;;;11.23;64.22
59873;BME280;50750;51.636;4.948;2024-01-30T00:18:56;102728.63;;;11.23;63.96
59873;BME280;50750;51.636;4.948;2024-01-30T00:21:26;102725.63;;;11.23;64.18
59873;BME280;50750;51.636;4.948;2024-01-30T00:23:57;102721.26;;;11.22;64.05
59873;BME280;50750;51.636;4.948;2024-01-30T00:26:27;102717.40;;;11.22;64.11
59873;BME280;50750;51.636;4.948;2024-01-30T00:28:57;102713.73;;;11.21;64.24
59873;BME280;50750;51.636;4.948;2024-01-30T00:31:27;102708.11;;;11.22;64.23
59873;BME280;50750;51.636;4.948;2024-01-30T00:33:58;102703.20;;;11.22;64.26
59873;BME280;50750;51.636;4.948;2024-01-30T00:36:28;102702.14;;;11.22;64.08
59873;BME280;50750;51.636;4.948;2024-01-30T00:38:59;102702.85;;;11.23;64.21
59873;BME280;50750;51.636;4.948;2024-01-30T00:41:29;102701.62;;;11.23;64.26
59873;BME280;50750;51.636;4.948;2024-01-30T00:43:59;102705.83;;;11.23;64.23
59873;BME280;50750;51.636;4.948;2024-01-30T00:46:30;102708.45;;;11.23;64.15
59873;BME280;50750;51.636;4.948;2024-01-30T00:49:00;102708.46;;;11.23;64.18
59873;BME280;50750;51.636;4.948;2024-01-30T00:51:30;102706.34;;;11.23;64.26
59873;BME280;50750;51.636;4.948;2024-01-30T00:54:01;102708.98;;;11.23;64.29
59873;BME280;50750;51.636;4.948;2024-01-30T00:56:31;102711.61;;;11.22;64.37
59873;BME280;50750;51.636;4.948;2024-01-30T00:59:02;102705.30;;;11.22;64.28
59873;BME280;50750;51.636;4.948;2024-01-30T01:01:32;102704.08;;;11.21;64.37
59873;BME280;50750;51.636;4.948;2024-01-30T01:04:02;102703.02;;;11.20;64.35
59873;BME280;50750;51.636;4.948;2024-01-30T01:06:33;102699.52;;;11.20;64.21
59873;BME280;50750;51.636;4.948;2024-01-30T01:09:03;102701.27;;;11.20;64.40
59873;BME280;50750;51.636;4.948;2024-01-30T01:11:33;102699.89;;;11.20;64.31
59873;BME280;50750;51.636;4.948;2024-01-30T01:14:04;102696.91;;;11.21;64.47
59873;BME280;50750;51.636;4.948;2024-01-30T01:16:35;102698.13;;;11.21;64.46
59873;BME280;50750;51.636;4.948;2024-01-30T01:19:06;102699.88;;;11.21;64.45
59873;BME280;50750;51.636;4.948;2024-01-30T01:21:36;102699.52;;;11.22;64.38
59873;BME280;50750;51.636;4.948;2024-01-30T01:24:07;102698.46;;;11.22;64.43
59873;BME280;50750;51.636;4.948;2024-01-30T01:26:37;102693.20;;;11.22;64.35
59873;BME280;50750;51.636;4.948;2024-01-30T01:29:07;102692.15;;;11.22;64.32
59873;BME280;50750;51.636;4.948;2024-01-30T01:31:40;102692.67;;;11.22;64.59
59873;BME280;50750;51.636;4.948;2024-01-30T01:34:12;102690.58;;;11.21;64.42
59873;BME280;50750;51.636;4.948;2024-01-30T01:36:43;102685.50;;;11.21;64.46
59873;BME280;50750;51.636;4.948;2024-01-30T01:39:13;102681.11;;;11.20;64.45
59873;BME280;50750;51.636;4.948;2024-01-30T01:41:43;102683.22;;;11.20;64.57
59873;BME280;50750;51.636;4.948;2024-01-30T01:44:14;102681.29;;;11.19;64.34
59873;BME280;50750;51.636;4.948;2024-01-30T01:46:44;102677.96;;;11.20;64.55
59873;BME280;50750;51.636;4.948;2024-01-30T01:49:15;102678.14;;;11.20;64.50
59873;BME280;50750;51.636;4.948;2024-01-30T01:51:46;102676.91;;;11.21;64.44
59873;BME280;50750;51.636;4.948;2024-01-30T01:54:18;102681.28;;;11.22;64.18
59873;BME280;50750;51.636;4.948;2024-01-30T01:56:48;102681.45;;;11.22;64.38
59873;BME280;50750;51.636;4.948;2024-01-30T01:59:19;102680.75;;;11.22;64.31
59873;BME280;50750;51.636;4.948;2024-01-30T02:01:50;102680.58;;;11.23;64.30
59873;BME280;50750;51.636;4.948;2024-01-30T02:04:23;102682.67;;;11.23;64.60
59873;BME280;50750;51.636;4.948;2024-01-30T02:06:53;102684.79;;;11.23;64.32
59873;BME280;50750;51.636;4.948;2024-01-30T02:09:23;102684.60;;;11.23;64.31
59873;BME280;50750;51.636;4.948;2024-01-30T02:11:54;102682.67;;;11.23;64.51
59873;BME280;50750;51.636;4.948;2024-01-30T02:14:25;102680.40;;;11.23;64.31
59873;BME280;50750;51.636;4.948;2024-01-30T02:16:55;102678.83;;;11.22;64.36
59873;BME280;50750;51.636;4.948;2024-01-30T02:19:26;102679.70;;;11.22;64.38
59873;BME280;50750;51.636;4.948;2024-01-30T02:21:56;102673.75;;;11.21;64.37
59873;BME280;50750;51.636;4.948;2024-01-30T02:24:26;102669.20;;;11.21;64.41
59873;BME280;50750;51.636;4.948;2024-01-30T02:26:56;102668.30;;;11.21;64.52
59873;BME280;50750;51.636;4.948;2024-01-30T02:29:26;102664.63;;;11.22;64.42
59873;BME280;50750;51.636;4.948;2024-01-30T02:31:57;102660.92;;;11.22;64.53
59873;BME280;50750;51.636;4.948;2024-01-30T02:34:27;102659.36;;;11.22;64.33
59873;BME280;50750;51.636;4.948;2024-01-30T02:36:57;102656.90;;;11.23;64.47
59873;BME280;50750;51.636;4.948;2024-01-30T02:39:27;102650.06;;;11.23;64.61
59873;BME280;50750;51.636;4.948;2024-01-30T02:41:58;102649.70;;;11.23;64.53
59873;BME280;50750;51.636;4.948;2024-01-30T02:44:28;102645.50;;;11.22;64.42
59873;BME280;50750;51.636;4.948;2024-01-30T02:46:58;102641.65;;;11.22;64.48
59873;BME280;50750;51.636;4.948;2024-01-30T02:49:28;102647.44;;;11.22;64.56
59873;BME280;50750;51.636;4.948;2024-01-30T02:51:59;102639.90;;;11.21;64.54
59873;BME280;50750;51.636;4.948;2024-01-30T02:54:29;102632.55;;;11.21;64.71
59873;BME280;50750;51.636;4.948;2024-01-30T02:56:59;102640.27;;;11.20;64.67
59873;BME280;50750;51.636;4.948;2024-01-30T02:59:30;102649.73;;;11.19;64.61
59873;BME280;50750;51.636;4.948;2024-01-30T03:02:02;102651.65;;;11.19;64.41
59873;BME280;50750;51.636;4.948;2024-01-30T03:04:33;102650.44;;;11.20;64.38
59873;BME280;50750;51.636;4.948;2024-01-30T03:07:03;102648.33;;;11.21;64.59
59873;BME280;50750;51.636;4.948;2024-01-30T03:09:33;102649.36;;;11.21;64.49
59873;BME280;50750;51.636;4.948;2024-01-30T03:12:05;102659.19;;;11.22;64.61
59873;BME280;50750;51.636;4.948;2024-01-30T03:14:35;102659.69;;;11.23;64.58
59873;BME280;50750;51.636;4.948;2024-01-30T03:17:06;102655.86;;;11.23;64.38
59873;BME280;50750;51.636;4.948;2024-01-30T03:19:36;102656.20;;;11.24;64.44
59873;BME280;50750;51.636;4.948;2024-01-30T03:22:07;102658.13;;;11.24;64.56
59873;BME280;50750;51.636;4.948;2024-01-30T03:24:37;102656.90;;;11.24;64.49
59873;BME280;50750;51.636;4.948;2024-01-30T03:27:07;102654.61;;;11.24;64.38
59873;BME280;50750;51.636;4.948;2024-01-30T03:29:37;102651.64;;;11.24;64.40
59873;BME280;50750;51.636;4.948;2024-01-30T03:32:08;102650.06;;;11.23;64.57
59873;BME280;50750;51.636;4.948;2024-01-30T03:34:38;102653.22;;;11.22;64.58
59873;BME280;50750;51.636;4.948;2024-01-30T03:37:08;102653.56;;;11.23;64.48
59873;BME280;50750;51.636;4.948;2024-01-30T03:39:38;102657.44;;;11.21;64.65
59873;BME280;50750;51.636;4.948;2024-01-30T03:42:09;102656.92;;;11.21;64.61
59873;BME280;50750;51.636;4.948;2024-01-30T03:44:39;102654.82;;;11.21;64.62
59873;BME280;50750;51.636;4.948;2024-01-30T03:47:09;102648.84;;;11.22;64.75
59873;BME280;50750;51.636;4.948;2024-01-30T03:49:40;102649.73;;;11.21;64.53
59873;BME280;50750;51.636;4.948;2024-01-30T03:52:10;102645.51;;;11.22;64.61
59873;BME280;50750;51.636;4.948;2024-01-30T03:54:40;102643.92;;;11.22;64.70
59873;BME280;50750;51.636;4.948;2024-01-30T03:57:11;102640.94;;;11.22;64.57
59873;BME280;50750;51.636;4.948;2024-01-30T03:59:44;102630.08;;;11.22;64.65
59873;BME280;50750;51.636;4.948;2024-01-30T04:02:14;102620.42;;;11.22;64.52
59873;BME280;50750;51.636;4.948;2024-01-30T04:04:44;102625.53;;;11.21;64.84
59873;BME280;50750;51.636;4.948;2024-01-30T04:07:14;102638.16;;;11.20;64.62
59873;BME280;50750;51.636;4.948;2024-01-30T04:09:44;102637.81;;;11.21;64.66
59873;BME280;50750;51.636;4.948;2024-01-30T04:12:14;102641.32;;;11.20;64.63
59873;BME280;50750;51.636;4.948;2024-01-30T04:14:45;102638.52;;;11.21;64.65
59873;BME280;50750;51.636;4.948;2024-01-30T04:17:16;102642.55;;;11.20;64.58
59873;BME280;50750;51.636;4.948;2024-01-30T04:19:46;102639.39;;;11.20;64.62
59873;BME280;50750;51.636;4.948;2024-01-30T04:22:16;102636.05;;;11.21;64.73
59873;BME280;50750;51.636;4.948;2024-01-30T04:24:46;102634.13;;;11.21;64.77
59873;BME280;50750;51.636;4.948;2024-01-30T04:27:17;102633.95;;;11.21;64.63
59873;BME280;50750;51.636;4.948;2024-01-30T04:29:48;102632.53;;;11.22;64.78
59873;BME280;50750;51.636;4.948;2024-01-30T04:32:18;102627.96;;;11.22;64.71
59873;BME280;50750;51.636;4.948;2024-01-30T04:34:48;102627.09;;;11.23;64.49
59873;BME280;50750;51.636;4.948;2024-01-30T04:37:19;102625.86;;;11.23;64.81
59873;BME280;50750;51.636;4.948;2024-01-30T04:39:49;102621.65;;;11.23;64.92
59873;BME280;50750;51.636;4.948;2024-01-30T04:42:19;102620.07;;;11.23;64.82
59873;BME280;50750;51.636;4.948;2024-01-30T04:44:50;102616.91;;;11.22;64.83
59873;BME280;50750;51.636;4.948;2024-01-30T04:47:20;102614.47;;;11.22;64.86
59873;BME280;50750;51.636;4.948;2024-01-30T04:49:52;102609.74;;;11.22;64.82
59873;BME280;50750;51.636;4.948;2024-01-30T04:52:23;102613.79;;;11.20;64.83
59873;BME280;50750;51.636;4.948;2024-01-30T04:54:53;102605.02;;;11.20;64.78
59873;BME280;50750;51.636;4.948;2024-01-30T04:57:23;102617.82;;;11.20;64.87
59873;BME280;50750;51.636;4.948;2024-01-30T04:59:53;102621.15;;;11.21;64.74
59873;BME280;50750;51.636;4.948;2024-01-30T05:02:23;102613.96;;;11.21;64.76
59873;BME280;50750;51.636;4.948;2024-01-30T05:04:53;102618.86;;;11.21;64.85
59873;BME280;50750;51.636;4.948;2024-01-30T05:07:25;102617.80;;;11.22;64.92
59873;BME280;50750;51.636;4.948;2024-01-30T05:09:55;102612.36;;;11.22;64.98
59873;BME280;50750;51.636;4.948;2024-01-30T05:12:25;102610.78;;;11.22;65.02
59873;BME280;50750;51.636;4.948;2024-01-30T05:14:56;102612.71;;;11.22;64.88
59873;BME280;50750;51.636;4.948;2024-01-30T05:17:26;102607.27;;;11.22;64.94
59873;BME280;50750;51.636;4.948;2024-01-30T05:19:56;102607.98;;;11.22;64.83
59873;BME280;50750;51.636;4.948;2024-01-30T05:22:26;102607.99;;;11.21;64.86
59873;BME280;50750;51.636;4.948;2024-01-30T05:24:57;102603.42;;;11.22;64.83
59873;BME280;50750;51.636;4.948;2024-01-30T05:27:27;102599.77;;;11.21;64.96
59873;BME280;50750;51.636;4.948;2024-01-30T05:29:57;102602.21;;;11.20;65.01
59873;BME280;50750;51.636;4.948;2024-01-30T05:32:28;102600.98;;;11.20;65.06
59873;BME280;50750;51.636;4.948;2024-01-30T05:34:58;102602.91;;;11.20;64.90
59873;BME280;50750;51.636;4.948;2024-01-30T05:37:28;102600.80;;;11.20;64.80
59873;BME280;50750;51.636;4.948;2024-01-30T05:39:59;102601.86;;;11.20;64.79
59873;BME280;50750;51.636;4.948;2024-01-30T05:42:29;102598.17;;;11.21;64.83
59873;BME280;50750;51.636;4.948;2024-01-30T05:44:59;102605.18;;;11.21;65.00
59873;BME280;50750;51.636;4.948;2024-01-30T05:47:29;102607.45;;;11.22;64.91
59873;BME280;50750;51.636;4.948;2024-01-30T05:50:00;102612.73;;;11.22;64.79
59873;BME280;50750;51.636;4.948;2024-01-30T05:52:30;102614.65;;;11.23;64.92
59873;BME280;50750;51.636;4.948;2024-01-30T05:55:01;102611.67;;;11.23;65.03
59873;BME280;50750;51.636;4.948;2024-01-30T05:57:31;102615.16;;;11.23;65.06
59873;BME280;50750;51.636;4.948;2024-01-30T06:00:02;102621.65;;;11.23;65.00
59873;BME280;50750;51.636;4.948;2024-01-30T06:02:32;102617.44;;;11.22;65.11
59873;BME280;50750;51.636;4.948;2024-01-30T06:05:03;102625.52;;;11.22;64.97
59873;BME280;50750;51.636;4.948;2024-01-30T06:07:33;102630.77;;;11.21;64.85
59873;BME280;50750;51.636;4.948;2024-01-30T06:10:05;102630.60;;;11.21;64.92
59873;BME280;50750;51.636;4.948;2024-01-30T06:12:38;102632.72;;;11.21;65.00
59873;BME280;50750;51.636;4.948;2024-01-30T06:15:09;102631.30;;;11.22;64.70
59873;BME280;50750;51.636;4.948;2024-01-30T06:17:41;102625.86;;;11.22;64.98
59873;BME280;50750;51.636;4.948;2024-01-30T06:20:12;102633.93;;;11.24;64.98
59873;BME280;50750;51.636;4.948;2024-01-30T06:22:42;102624.63;;;11.24;65.05
59873;BME280;50750;51.636;4.948;2024-01-30T06:25:12;102633.23;;;11.24;64.93
59873;BME280;50750;51.636;4.948;2024-01-30T06:27:42;102641.10;;;11.25;64.77
59873;BME280;50750;51.636;4.948;2024-01-30T06:30:14;102647.42;;;11.25;64.82
59873;BME280;50750;51.636;4.948;2024-01-30T06:32:44;102649.87;;;11.25;64.90
59873;BME280;50750;51.636;4.948;2024-01-30T06:35:15;102644.96;;;11.25;65.09
59873;BME280;50750;51.636;4.948;2024-01-30T06:37:46;102647.95;;;11.24;65.04
59873;BME280;50750;51.636;4.948;2024-01-30T06:40:16;102646.36;;;11.25;64.97
59873;BME280;50750;51.636;4.948;2024-01-30T06:42:47;102649.17;;;11.25;64.92
59873;BME280;50750;51.636;4.948;2024-01-30T06:45:17;102652.86;;;11.24;64.99
59873;BME280;50750;51.636;4.948;2024-01-30T06:47:47;102657.06;;;11.24;64.85
59873;BME280;50750;51.636;4.948;2024-01-30T06:50:17;102658.64;;;11.25;64.87
59873;BME280;50750;51.636;4.948;2024-01-30T06:52:47;102657.60;;;11.25;64.94
59873;BME280;50750;51.636;4.948;2024-01-30T06:55:18;102658.46;;;11.25;65.15
59873;BME280;50750;51.636;4.948;2024-01-30T06:57:48;102664.60;;;11.25;65.22
59873;BME280;50750;51.636;4.948;2024-01-30T07:00:19;102667.94;;;11.25;65.13
59873;BME280;50750;51.636;4.948;2024-01-30T07:02:50;102672.14;;;11.25;65.14
59873;BME280;50750;51.636;4.948;2024-01-30T07:05:20;102673.02;;;11.26;65.35
59873;BME280;50750;51.636;4.948;2024-01-30T07:07:51;102674.08;;;11.26;65.28
59873;BME280;50750;51.636;4.948;2024-01-30T07:10:22;102678.99;;;11.26;65.23
59873;BME280;50750;51.636;4.948;2024-01-30T07:12:52;102679.16;;;11.26;65.45
59873;BME280;50750;51.636;4.948;2024-01-30T07:15:23;102682.66;;;11.25;65.56
59873;BME280;50750;51.636;4.948;2024-01-30T07:17:53;102684.60;;;11.24;65.30
59873;BME280;50750;51.636;4.948;2024-01-30T07:20:23;102687.94;;;11.24;65.31
59873;BME280;50750;51.636;4.948;2024-01-30T07:22:53;102689.34;;;11.24;65.35
59873;BME280;50750;51.636;4.948;2024-01-30T07:25:24;102693.02;;;11.24;65.41
59873;BME280;50750;51.636;4.948;2024-01-30T07:27:55;102694.95;;;11.24;65.37
59873;BME280;50750;51.636;4.948;2024-01-30T07:30:26;102698.11;;;11.24;65.62
59873;BME280;50750;51.636;4.948;2024-01-30T07:32:56;102695.99;;;11.25;65.48
59873;BME280;50750;51.636;4.948;2024-01-30T07:35:26;102700.73;;;11.25;65.40
59873;BME280;50750;51.636;4.948;2024-01-30T07:37:57;102701.60;;;11.25;65.36
59873;BME280;50750;51.636;4.948;2024-01-30T07:40:27;102704.23;;;11.25;65.53
59873;BME280;50750;51.636;4.948;2024-01-30T07:42:57;102711.09;;;11.25;65.50
59873;BME280;50750;51.636;4.948;2024-01-30T07:45:27;102711.60;;;11.24;65.64
59873;BME280;50750;51.636;4.948;2024-01-30T07:48:01;102709.86;;;11.24;65.65
59873;BME280;50750;51.636;4.948;2024-01-30T07:50:31;102713.36;;;11.24;65.76
59873;BME280;50750;51.636;4.948;2024-01-30T07:53:02;102714.77;;;11.24;65.49
59873;BME280;50750;51.636;4.948;2024-01-30T07:55:32;102712.67;;;11.24;65.69
59873;BME280;50750;51.636;4.948;2024-01-30T07:58:03;102706.34;;;11.24;65.62
59873;BME280;50750;51.636;4.948;2024-01-30T08:00:34;102707.56;;;11.25;65.73
59873;BME280;50750;51.636;4.948;2024-01-30T08:03:05;102705.29;;;11.26;65.70
59873;BME280;50750;51.636;4.948;2024-01-30T08:05:35;102707.05;;;11.26;65.66
59873;BME280;50750;51.636;4.948;2024-01-30T08:08:08;102711.42;;;11.26;65.64
59873;BME280;50750;51.636;4.948;2024-01-30T08:10:38;102707.23;;;11.27;65.84
59873;BME280;50750;51.636;4.948;2024-01-30T08:13:08;102707.05;;;11.27;65.66
59873;BME280;50750;51.636;4.948;2024-01-30T08:15:38;102708.27;;;11.27;65.79
59873;BME280;50750;51.636;4.948;2024-01-30T08:18:09;102710.73;;;11.26;65.63
59873;BME280;50750;51.636;4.948;2024-01-30T08:20:39;102717.05;;;11.26;65.51
59873;BME280;50750;51.636;4.948;2024-01-30T08:23:09;102713.36;;;11.26;65.82
59873;BME280;50750;51.636;4.948;2024-01-30T08:25:40;102715.98;;;11.25;65.75
59873;BME280;50750;51.636;4.948;2024-01-30T08:28:10;102713.20;;;11.26;65.68
59873;BME280;50750;51.636;4.948;2024-01-30T08:30:40;102716.86;;;11.27;65.91
59873;BME280;50750;51.636;4.948;2024-01-30T08:33:11;102714.76;;;11.27;65.60
59873;BME280;50750;51.636;4.948;2024-01-30T08:35:41;102706.16;;;11.27;65.57
59873;BME280;50750;51.636;4.948;2024-01-30T08:38:12;102713.52;;;11.28;65.36
59873;BME280;50750;51.636;4.948;2024-01-30T08:40:43;102717.73;;;11.29;65.42
59873;BME280;50750;51.636;4.948;2024-01-30T08:43:13;102721.41;;;11.30;65.52
59873;BME280;50750;51.636;4.948;2024-01-30T08:45:44;102721.06;;;11.30;65.52
59873;BME280;50750;51.636;4.948;2024-01-30T08:48:15;102722.29;;;11.30;65.56
59873;BME280;50750;51.636;4.948;2024-01-30T08:50:46;102726.33;;;11.30;65.57
59873;BME280;50750;51.636;4.948;2024-01-30T08:53:16;102732.47;;;11.29;65.57
59873;BME280;50750;51.636;4.948;2024-01-30T08:55:47;102733.52;;;11.28;65.73
59873;BME280;50750;51.636;4.948;2024-01-30T08:58:17;102733.17;;;11.28;65.78
59873;BME280;50750;51.636;4.948;2024-01-30T09:00:48;102737.38;;;11.29;65.53
59873;BME280;50750;51.636;4.948;2024-01-30T09:03:20;102735.80;;;11.29;65.58
59873;BME280;50750;51.636;4.948;2024-01-30T09:05:50;102741.05;;;11.30;65.58
59873;BME280;50750;51.636;4.948;2024-01-30T09:08:21;102738.59;;;11.31;65.47
59873;BME280;50750;51.636;4.948;2024-01-30T09:10:51;102742.27;;;11.31;65.66
59873;BME280;50750;51.636;4.948;2024-01-30T09:13:21;102741.76;;;11.32;65.56
59873;BME280;50750;51.636;4.948;2024-01-30T09:15:52;102747.02;;;11.32;65.81
59873;BME280;50750;51.636;4.948;2024-01-30T09:18:22;102743.16;;;11.32;65.56
59873;BME280;50750;51.636;4.948;2024-01-30T09:20:52;102745.42;;;11.32;65.46
59873;BME280;50750;51.636;4.948;2024-01-30T09:23:22;102749.81;;;11.32;65.37
59873;BME280;50750;51.636;4.948;2024-01-30T09:25:52;102753.50;;;11.32;65.66
59873;BME280;50750;51.636;4.948;2024-01-30T09:28:23;102752.63;;;11.32;65.68
59873;BME280;50750;51.636;4.948;2024-01-30T09:30:53;102752.80;;;11.32;65.42
59873;BME280;50750;51.636;4.948;2024-01-30T09:33:23;102750.70;;;11.32;65.40
59873;BME280;50750;51.636;4.948;2024-01-30T09:35:54;102750.51;;;11.33;65.26
59873;BME280;50750;51.636;4.948;2024-01-30T09:38:24;102752.63;;;11.34;65.42
59873;BME280;50750;51.636;4.948;2024-01-30T09:40:55;102756.48;;;11.35;65.60
59873;BME280;50750;51.636;4.948;2024-01-30T09:43:26;102762.96;;;11.35;65.41
59873;BME280;50750;51.636;4.948;2024-01-30T09:46:01;102763.66;;;11.36;65.38
59873;BME280;50750;51.636;4.948;2024-01-30T09:48:33;102757.88;;;11.36;65.47
59873;BME280;50750;51.636;4.948;2024-01-30T09:51:04;102761.38;;;11.36;65.53
59873;BME280;50750;51.636;4.948;2024-01-30T09:53:35;102763.30;;;11.36;65.52
59873;BME280;50750;51.636;4.948;2024-01-30T09:56:07;102767.17;;;11.36;65.52
59873;BME280;50750;51.636;4.948;2024-01-30T09:58:38;102766.65;;;11.35;65.50
59873;BME280;50750;51.636;4.948;2024-01-30T10:01:09;102764.89;;;11.35;65.40
59873;BME280;50750;51.636;4.948;2024-01-30T10:03:39;102766.83;;;11.34;65.60
59873;BME280;50750;51.636;4.948;2024-01-30T10:06:11;102774.89;;;11.35;65.46
59873;BME280;50750;51.636;4.948;2024-01-30T10:08:41;102787.34;;;11.36;65.20
59873;BME280;50750;51.636;4.948;2024-01-30T10:11:12;102791.73;;;11.37;65.41
59873;BME280;50750;51.636;4.948;2024-01-30T10:13:43;102782.42;;;11.38;65.49
59873;BME280;50750;51.636;4.948;2024-01-30T10:16:16;102775.23;;;11.38;65.42
59873;BME280;50750;51.636;4.948;2024-01-30T10:18:47;102782.95;;;11.39;65.41
59873;BME280;50750;51.636;4.948;2024-01-30T10:21:17;102782.24;;;11.39;65.43
59873;BME280;50750;51.636;4.948;2024-01-30T10:23:48;102775.39;;;11.39;65.26
59873;BME280;50750;51.636;4.948;2024-01-30T10:26:18;102779.80;;;11.38;65.28
59873;BME280;50750;51.636;4.948;2024-01-30T10:28:49;102785.92;;;11.38;65.28
59873;BME280;50750;51.636;4.948;2024-01-30T10:31:20;102787.33;;;11.38;65.33
59873;BME280;50750;51.636;4.948;2024-01-30T10:33:50;102795.92;;;11.39;65.21
59873;BME280;50750;51.636;4.948;2024-01-30T10:36:23;102793.30;;;11.38;65.34
59873;BME280;50750;51.636;4.948;2024-01-30T10:39:00;102791.89;;;11.39;65.17
59873;BME280;50750;51.636;4.948;2024-01-30T10:41:33;102794.52;;;11.39;65.34
59873;BME280;50750;51.636;4.948;2024-01-30T10:44:10;102800.13;;;11.40;65.30
59873;BME280;50750;51.636;4.948;2024-01-30T10:46:43;102800.83;;;11.41;65.30
59873;BME280;50750;51.636;4.948;2024-01-30T10:49:16;102801.88;;;11.41;65.20
59873;BME280;50750;51.636;4.948;2024-01-30T10:51:47;102802.06;;;11.42;65.39
59873;BME280;50750;51.636;4.948;2024-01-30T10:54:18;102802.59;;;11.42;65.14
59873;BME280;50750;51.636;4.948;2024-01-30T10:56:51;102799.77;;;11.44;65.27
59873;BME280;50750;51.636;4.948;2024-01-30T10:59:22;102800.47;;;11.43;65.27
59873;BME280;50750;51.636;4.948;2024-01-30T11:01:53;102803.79;;;11.44;65.32
59873;BME280;50750;51.636;4.948;2024-01-30T11:04:24;102801.87;;;11.44;65.26
59873;BME280;50750;51.636;4.948;2024-01-30T11:06:55;102796.09;;;11.44;65.20
59873;BME280;50750;51.636;4.948;2024-01-30T11:09:25;102803.27;;;11.44;65.26
59873;BME280;50750;51.636;4.948;2024-01-30T11:11:59;102796.44;;;11.44;65.25
59873;BME280;50750;51.636;4.948;2024-01-30T11:14:31;102797.14;;;11.44;65.39
59873;BME280;50750;51.636;4.948;2024-01-30T11:17:01;102808.36;;;11.45;65.38
59873;BME280;50750;51.636;4.948;2024-01-30T11:19:33;102810.83;;;11.45;65.10
59873;BME280;50750;51.636;4.948;2024-01-30T11:22:03;102806.08;;;11.46;65.14
59873;BME280;50750;51.636;4.948;2024-01-30T11:24:40;102799.58;;;11.47;65.30
59873;BME280;50750;51.636;4.948;2024-01-30T11:27:11;102806.95;;;11.48;65.04
59873;BME280;50750;51.636;4.948;2024-01-30T11:29:43;102813.27;;;11.48;65.08
59873;BME280;50750;51.636;4.948;2024-01-30T11:32:23;102814.67;;;11.48;65.12
59873;BME280;50750;51.636;4.948;2024-01-30T11:34:53;102815.20;;;11.48;65.24
59873;BME280;50750;51.636;4.948;2024-01-30T11:37:26;102820.64;;;11.48;65.01
59873;BME280;50750;51.636;4.948;2024-01-30T11:39:57;102819.59;;;11.48;64.92
59873;BME280;50750;51.636;4.948;2024-01-30T11:42:28;102827.13;;;11.48;65.08
59873;BME280;50750;51.636;4.948;2024-01-30T11:45:00;102826.09;;;11.48;64.98
59873;BME280;50750;51.636;4.948;2024-01-30T11:47:34;102825.73;;;11.47;64.93
59873;BME280;50750;51.636;4.948;2024-01-30T11:50:05;102827.48;;;11.48;65.04
59873;BME280;50750;51.636;4.948;2024-01-30T11:52:37;102830.46;;;11.48;64.92
59873;BME280;50750;51.636;4.948;2024-01-30T11:55:09;102834.50;;;11.49;65.21
59873;BME280;50750;51.636;4.948;2024-01-30T11:57:40;102836.78;;;11.50;65.08
59873;BME280;50750;51.636;4.948;2024-01-30T12:00:17;102840.64;;;11.51;64.88
59873;BME280;50750;51.636;4.948;2024-01-30T12:02:51;102840.80;;;11.52;64.92
59873;BME280;50750;51.636;4.948;2024-01-30T12:05:25;102843.08;;;11.54;65.00
59873;BME280;50750;51.636;4.948;2024-01-30T12:07:56;102846.05;;;11.54;64.98
59873;BME280;50750;51.636;4.948;2024-01-30T12:10:27;102857.10;;;11.55;64.79
59873;BME280;50750;51.636;4.948;2024-01-30T12:12:58;102852.89;;;11.55;64.81
59873;BME280;50750;51.636;4.948;2024-01-30T12:15:30;102853.94;;;11.55;64.78
59873;BME280;50750;51.636;4.948;2024-01-30T12:18:07;102851.14;;;11.55;64.78
59873;BME280;50750;51.636;4.948;2024-01-30T12:20:38;102858.15;;;11.55;64.84
59873;BME280;50750;51.636;4.948;2024-01-30T12:23:08;102869.56;;;11.54;64.88
59873;BME280;50750;51.636;4.948;2024-01-30T12:25:38;102867.98;;;11.54;64.70
59873;BME280;50750;51.636;4.948;2024-01-30T12:28:09;102864.30;;;11.54;64.70
59873;BME280;50750;51.636;4.948;2024-01-30T12:30:40;102865.36;;;11.55;64.75
59873;BME280;50750;51.636;4.948;2024-01-30T12:33:17;102866.05;;;11.55;64.68
59873;BME280;50750;51.636;4.948;2024-01-30T12:35:48;102877.99;;;11.55;64.62
59873;BME280;50750;51.636;4.948;2024-01-30T12:38:19;102875.36;;;11.56;64.81
59873;BME280;50750;51.636;4.948;2024-01-30T12:40:49;102885.89;;;11.56;64.82
59873;BME280;50750;51.636;4.948;2024-01-30T12:43:19;102885.54;;;11.56;64.60
59873;BME280;50750;51.636;4.948;2024-01-30T12:45:50;102889.21;;;11.57;64.84
59873;BME280;50750;51.636;4.948;2024-01-30T12:48:20;102886.58;;;11.57;64.71
59873;BME280;50750;51.636;4.948;2024-01-30T12:50:50;102888.52;;;11.56;64.83
59873;BME280;50750;51.636;4.948;2024-01-30T12:53:20;102887.98;;;11.56;64.75
59873;BME280;50750;51.636;4.948;2024-01-30T12:55:51;102892.03;;;11.56;64.69
59873;BME280;50750;51.636;4.948;2024-01-30T12:58:23;102897.81;;;11.55;64.65
59873;BME280;50750;51.636;4.948;2024-01-30T13:00:54;102894.48;;;11.55;64.67
59873;BME280;50750;51.636;4.948;2024-01-30T13:03:24;102899.05;;;11.54;64.62
59873;BME280;50750;51.636;4.948;2024-01-30T13:05:55;102905.54;;;11.55;64.86
59873;BME280;50750;51.636;4.948;2024-01-30T13:08:25;102909.56;;;11.55;64.77